Aérodrome :







RETROUVEZ-NOUS SUR...

 
LOGIN :

S'inscrire | Disclaimer

   EN    FR    IT 

 









Légende :    VFR   VFR Marginal   IFR   IFR Intensif   IFR Très Intensif
Visi : 
Plafond : 
>= 8 km
>= 3000ft
5 à 8 km
1000 à 3000 ft
1500m à 5 km
500 à 1000 ft
800 à 1500m
200 à 500 ft
< 800m
< 200 ft
Symboles :   Orages  Brouillard  Fortes neiges  Fortes précipitations  Vent > 20 kt






- Altitude de l'aérodrome : 22 ft
- Code IATA : YDP


CYDP - Nain

DERNIER METAR :
  • 042000Z 26005KT 200V290 15SM BKN031 BKN210 M04/M09 A2967 RMK SC6CI1 SLP050

METARs EXPIRÉS :
  • 041900Z 27011G19KT 15SM FEW031 BKN120 BKN210 M04/M08 A2966 RMK SC2AC3CI1 SLP047
  • 041800Z VRB02KT 15SM BKN031 OVC100 M03/M08 A2966 RMK SC7AS1 SLP044

TAF TAF CYDP
Valide du 04 à 20h jusqu'au 05 à 00h UTC


041938Z 0420/0424 27010G20KT P6SM FEW030 BKN120 BKN210
TEMPO 0420/0424 P6SM -SHSN BKN030 OVC120 RMK NXT FCST WILL BE ISSUED AT 051045Z
FIR CZQX / Amérique du Nord



MET'MAP, la Météo Aéronautique d'un coup d'oeil ! - Copyright ORBIFLY Décembre 2007 - Disclaimer

ORBIFLY MET'MAP TEAM :

Programmation & Développement : Alexandra Zaïnal
Sur une idée originale de : Baudouin d'Aumeries
Assistance à la programmation : Marc-Olivier Méhu
Soutien technique & logistique : Manuel Goepfert

Contact : metmap@orbifly.com




SOURCES & CREDITS :

   NOAA